Time;durP1;ratioP1;P1;durP2;ratioP2;P2;SDS_P1;SDS_P2;PMS_P1;PMS_P2;Temp;Humidity;BMP_temperature;BMP_pressure;BME280_temperature;BME280_humidity;BME280_pressure;Samples;Min_cycle;Max_cycle;Signal;HPM_P1;HPM_P2
2021/07/18 00:03:04;;;;;;;593.53;406.02;;;17.50;99.90;;;;;;8294130;28;20032;-62
2021/07/18 00:07:05;;;;;;;599.03;411.63;;;17.40;99.90;;;;;;8285178;28;20025;-62
2021/07/18 00:11:05;;;;;;;599.85;412.75;;;17.50;99.90;;;;;;8294256;28;20025;-62
2021/07/18 00:15:08;;;;;;;594.97;409.10;;;17.50;99.90;;;;;;8293566;28;20455;-61
2021/07/18 00:19:09;;;;;;;596.35;416.73;;;17.50;99.90;;;;;;8293689;28;20037;-62
2021/07/18 00:23:10;;;;;;;592.10;410.65;;;17.40;99.90;;;;;;8294279;28;20066;-61
2021/07/18 00:27:10;;;;;;;592.30;412.67;;;17.40;99.90;;;;;;8278550;28;20185;-62
2021/07/18 00:31:11;;;;;;;600.08;412.17;;;17.40;99.90;;;;;;8269594;28;20026;-61
2021/07/18 00:35:11;;;;;;;592.65;405.17;;;17.40;99.90;;;;;;8293739;28;20030;-61
2021/07/18 00:39:15;;;;;;;597.38;410.27;;;17.40;99.90;;;;;;8274995;28;20099;-61
2021/07/18 00:43:15;;;;;;;596.80;408.50;;;17.40;99.90;;;;;;8275774;28;20083;-61
2021/07/18 00:47:16;;;;;;;600.97;409.52;;;17.40;99.90;;;;;;8285885;28;20026;-61
2021/07/18 00:51:17;;;;;;;590.08;408.23;;;17.40;99.90;;;;;;8293144;28;20030;-61
2021/07/18 00:55:18;;;;;;;575.08;408.45;;;17.30;99.90;;;;;;8275530;28;20496;-62
2021/07/18 00:59:18;;;;;;;586.00;405.80;;;17.30;99.90;;;;;;8292599;28;20464;-61
2021/07/18 01:03:19;;;;;;;587.85;411.58;;;17.40;99.90;;;;;;8266878;28;20037;-61
2021/07/18 01:07:20;;;;;;;583.72;412.88;;;17.30;99.90;;;;;;8290700;28;20026;-61
2021/07/18 01:11:21;;;;;;;575.40;411.92;;;17.20;99.90;;;;;;8293160;28;20068;-61
2021/07/18 01:15:21;;;;;;;570.55;416.83;;;17.20;99.90;;;;;;8293394;28;20737;-61
2021/07/18 01:19:23;;;;;;;566.97;406.88;;;17.10;99.90;;;;;;8293160;28;20026;-61
2021/07/18 01:23:24;;;;;;;573.55;409.70;;;17.30;99.90;;;;;;8275432;28;20402;-61
2021/07/18 01:27:25;;;;;;;569.47;416.33;;;17.20;99.90;;;;;;8285920;28;20110;-61
2021/07/18 01:31:26;;;;;;;565.65;419.20;;;17.20;99.90;;;;;;8267171;28;20489;-61
2021/07/18 01:35:27;;;;;;;553.97;409.08;;;17.30;99.90;;;;;;8290830;28;20036;-61
2021/07/18 01:39:28;;;;;;;544.30;415.48;;;17.40;99.90;;;;;;8298477;28;20053;-62
2021/07/18 01:43:28;;;;;;;537.50;413.42;;;17.30;99.90;;;;;;8299054;28;20102;-64
2021/07/18 01:47:29;;;;;;;536.35;422.23;;;17.20;99.90;;;;;;8290525;28;20022;-64
2021/07/18 01:51:30;;;;;;;530.80;417.42;;;17.30;99.90;;;;;;8298492;28;20033;-64
2021/07/18 01:55:30;;;;;;;525.08;415.65;;;17.30;99.90;;;;;;8280721;28;20120;-64
2021/07/18 01:59:31;;;;;;;540.60;411.20;;;17.20;99.90;;;;;;8297888;28;20121;-63
2021/07/18 02:03:31;;;;;;;534.10;415.40;;;17.10;99.90;;;;;;8289782;28;20377;-64
2021/07/18 02:07:32;;;;;;;531.35;419.00;;;17.10;99.90;;;;;;8294242;28;20050;-64
2021/07/18 02:11:33;;;;;;;522.53;411.67;;;16.90;99.90;;;;;;8296032;28;20026;-64
2021/07/18 02:15:33;;;;;;;506.00;411.85;;;17.00;99.90;;;;;;8298038;28;20030;-64
2021/07/18 02:19:34;;;;;;;488.25;410.17;;;16.90;99.90;;;;;;8297493;28;20060;-64
2021/07/18 02:23:35;;;;;;;487.10;406.42;;;16.70;99.90;;;;;;8297508;28;20077;-63
2021/07/18 02:27:36;;;;;;;486.15;404.50;;;16.70;99.90;;;;;;8297342;28;20061;-63
2021/07/18 02:31:36;;;;;;;481.65;402.13;;;16.70;99.90;;;;;;8297468;28;20480;-64
2021/07/18 02:35:37;;;;;;;479.98;401.65;;;16.60;99.90;;;;;;8297030;28;20388;-64
2021/07/18 02:39:37;;;;;;;474.80;399.08;;;16.40;99.90;;;;;;8295778;28;20084;-64
2021/07/18 02:43:39;;;;;;;474.10;395.08;;;16.40;99.90;;;;;;8296843;28;20030;-63
2021/07/18 02:47:42;;;;;;;473.10;393.25;;;16.40;99.90;;;;;;8296470;28;20026;-64
2021/07/18 02:51:43;;;;;;;485.65;394.35;;;16.30;99.90;;;;;;8296761;28;20519;-64
2021/07/18 02:55:43;;;;;;;477.23;395.75;;;16.30;99.90;;;;;;8296540;28;20040;-64
2021/07/18 02:59:44;;;;;;;469.15;390.75;;;16.40;99.90;;;;;;8288130;28;20578;-63
2021/07/18 03:03:44;;;;;;;463.25;397.27;;;16.40;99.90;;;;;;8294079;28;20030;-64
2021/07/18 03:07:46;;;;;;;452.90;394.60;;;16.50;99.90;;;;;;8295011;28;20480;-64
2021/07/18 03:11:47;;;;;;;446.17;394.90;;;16.50;99.90;;;;;;8295914;28;20033;-64
2021/07/18 03:15:47;;;;;;;507.17;452.75;;;16.50;99.90;;;;;;8288375;28;20064;-64
2021/07/18 03:19:48;;;;;;;454.60;406.63;;;16.50;99.90;;;;;;8292780;28;20107;-64
2021/07/18 03:23:48;;;;;;;471.02;402.58;;;16.40;99.90;;;;;;8295239;28;20025;-64
2021/07/18 03:27:49;;;;;;;478.67;411.13;;;16.30;99.90;;;;;;8294560;28;20034;-64
2021/07/18 03:31:50;;;;;;;465.95;403.42;;;16.30;99.90;;;;;;8294787;28;20456;-64
2021/07/18 03:35:52;;;;;;;468.65;400.10;;;16.40;99.90;;;;;;8294739;28;20093;-61
2021/07/18 03:39:52;;;;;;;459.35;403.00;;;16.40;99.90;;;;;;8294763;28;20022;-61
2021/07/18 03:43:53;;;;;;;576.30;365.33;;;16.30;99.90;;;;;;8294782;28;20438;-61
2021/07/18 03:47:54;;;;;;;580.00;369.45;;;16.30;99.90;;;;;;8294387;28;20109;-62
2021/07/18 03:51:54;;;;;;;581.17;367.92;;;16.00;99.90;;;;;;8293324;28;20022;-62
2021/07/18 03:55:55;;;;;;;598.53;403.10;;;16.00;99.90;;;;;;8288268;28;20037;-62
2021/07/18 03:59:55;;;;;;;573.53;370.00;;;16.00;99.90;;;;;;8291612;28;20041;-62
2021/07/18 04:03:56;;;;;;;572.75;370.52;;;16.20;99.90;;;;;;8293010;28;20042;-61
2021/07/18 04:07:56;;;;;;;575.13;367.27;;;16.10;99.90;;;;;;8274958;28;20028;-61
2021/07/18 04:11:57;;;;;;;577.05;367.73;;;15.90;99.90;;;;;;8292422;28;20036;-61
2021/07/18 04:15:58;;;;;;;582.33;368.23;;;15.90;99.90;;;;;;8283197;28;20103;-61
2021/07/18 04:19:58;;;;;;;578.60;367.48;;;15.80;99.90;;;;;;8290390;28;20033;-64
2021/07/18 04:23:59;;;;;;;575.58;364.80;;;15.90;99.90;;;;;;8292309;28;20030;-64
2021/07/18 04:27:59;;;;;;;572.65;365.35;;;16.00;99.90;;;;;;8291861;28;20606;-67
2021/07/18 04:32:00;;;;;;;576.17;368.73;;;16.20;99.90;;;;;;8292581;28;20030;-67
2021/07/18 04:36:00;;;;;;;575.38;368.50;;;16.30;99.90;;;;;;8292222;28;20030;-66
2021/07/18 04:40:01;;;;;;;575.60;375.90;;;16.30;99.90;;;;;;8291992;28;20021;-67
2021/07/18 04:44:02;;;;;;;569.50;382.27;;;16.40;99.90;;;;;;8270858;28;20030;-65
2021/07/18 04:48:02;;;;;;;571.63;385.48;;;16.60;99.90;;;;;;8266550;28;20030;-66
2021/07/18 04:52:03;;;;;;;574.42;383.00;;;16.60;99.90;;;;;;8287973;28;20037;-65
2021/07/18 04:56:04;;;;;;;572.40;388.90;;;16.60;99.90;;;;;;8280676;28;20042;-65
2021/07/18 05:00:07;;;;;;;565.25;391.67;;;16.70;99.90;;;;;;8262983;28;20038;-65
2021/07/18 05:04:07;;;;;;;564.00;391.27;;;16.80;99.90;;;;;;8273550;28;20478;-64
2021/07/18 05:08:08;;;;;;;580.92;384.77;;;16.90;99.90;;;;;;8289916;28;20076;-65
2021/07/18 05:12:09;;;;;;;582.67;388.75;;;16.80;99.90;;;;;;8274477;28;20400;-65
2021/07/18 05:16:09;;;;;;;583.00;381.25;;;17.10;99.90;;;;;;8292076;28;20443;-65
2021/07/18 05:20:11;;;;;;;580.05;382.63;;;17.10;99.90;;;;;;8273964;28;20022;-65
2021/07/18 05:24:12;;;;;;;579.92;390.23;;;17.20;99.90;;;;;;8288720;28;20061;-65
2021/07/18 05:28:13;;;;;;;574.53;395.27;;;17.40;99.90;;;;;;8290445;28;20111;-65
2021/07/18 05:32:14;;;;;;;574.65;401.10;;;17.40;99.90;;;;;;8274103;28;20030;-64
2021/07/18 05:36:14;;;;;;;566.22;408.80;;;17.50;99.90;;;;;;8275903;28;20046;-65
2021/07/18 05:40:15;;;;;;;578.53;410.48;;;17.60;99.90;;;;;;8274279;28;20030;-64
2021/07/18 05:44:15;;;;;;;567.63;415.15;;;17.80;99.90;;;;;;8290994;28;20033;-65
2021/07/18 05:48:22;;;;;;;567.58;417.83;;;18.10;99.90;;;;;;8291062;28;20172;-65
2021/07/18 05:52:23;;;;;;;565.83;425.30;;;18.10;99.90;;;;;;8291515;28;20022;-65
2021/07/18 05:56:23;;;;;;;558.55;438.25;;;18.30;99.90;;;;;;8273553;28;20026;-64
2021/07/18 06:00:24;;;;;;;560.03;436.52;;;18.60;99.90;;;;;;8291128;28;20412;-64
2021/07/18 06:04:24;;;;;;;555.00;430.70;;;18.40;99.90;;;;;;8291415;28;20026;-65
2021/07/18 06:08:25;;;;;;;546.97;436.90;;;18.30;99.90;;;;;;8289667;28;20026;-64
2021/07/18 06:12:26;;;;;;;552.13;442.50;;;18.40;99.90;;;;;;8290451;28;20568;-64
2021/07/18 06:16:26;;;;;;;541.60;446.58;;;18.60;99.90;;;;;;8294100;28;20037;-65
2021/07/18 06:20:27;;;;;;;557.88;456.98;;;18.80;99.90;;;;;;8288730;28;20029;-64
2021/07/18 06:24:27;;;;;;;548.45;463.60;;;19.10;99.90;;;;;;8263957;28;20067;-65
2021/07/18 06:28:28;;;;;;;553.17;470.58;;;19.20;99.90;;;;;;8282563;28;20030;-65
2021/07/18 06:32:29;;;;;;;554.95;480.17;;;19.30;99.90;;;;;;8280042;28;20034;-65
2021/07/18 06:36:30;;;;;;;548.53;488.50;;;19.50;99.90;;;;;;8266742;28;20033;-65
2021/07/18 06:40:31;;;;;;;554.90;480.85;;;19.50;99.90;;;;;;8292423;28;20034;-64
2021/07/18 06:44:31;;;;;;;540.58;474.20;;;19.30;99.90;;;;;;8284974;28;20105;-61
2021/07/18 06:48:32;;;;;;;549.90;472.33;;;19.50;99.90;;;;;;8288195;28;20026;-59
2021/07/18 06:52:32;;;;;;;550.38;469.55;;;19.50;99.90;;;;;;8291648;28;20033;-60
2021/07/18 06:56:33;;;;;;;561.33;452.80;;;19.00;99.90;;;;;;8288986;28;20037;-61
2021/07/18 07:00:34;;;;;;;544.15;459.60;;;19.00;99.90;;;;;;8291884;28;20040;-61
2021/07/18 07:04:34;;;;;;;544.63;474.23;;;19.20;99.90;;;;;;8295585;28;20141;-60
2021/07/18 07:08:35;;;;;;;545.47;485.80;;;19.50;99.90;;;;;;8295164;28;20022;-60
2021/07/18 07:12:35;;;;;;;567.60;506.27;;;19.90;99.90;;;;;;8294759;28;20408;-61
2021/07/18 07:16:36;;;;;;;564.95;505.55;;;20.20;99.90;;;;;;8271536;28;20034;-61
2021/07/18 07:20:37;;;;;;;571.15;509.30;;;20.30;99.90;;;;;;8265458;28;20045;-60
2021/07/18 07:24:37;;;;;;;567.15;507.65;;;20.10;99.90;;;;;;8272481;28;20034;-61
2021/07/18 07:28:38;;;;;;;564.45;502.45;;;19.90;99.90;;;;;;8262386;28;20027;-61
2021/07/18 07:32:39;;;;;;;574.60;514.90;;;20.00;99.90;;;;;;8263362;28;20070;-61
2021/07/18 07:36:39;;;;;;;571.13;509.38;;;20.10;99.90;;;;;;8294899;28;20603;-66
2021/07/18 07:40:40;;;;;;;594.80;534.53;;;20.30;99.90;;;;;;8293823;28;20122;-68
2021/07/18 07:44:41;;;;;;;571.83;517.03;;;20.80;99.90;;;;;;8294058;28;20034;-67
2021/07/18 07:48:41;;;;;;;575.53;524.80;;;20.80;99.90;;;;;;8293655;28;20484;-66
2021/07/18 07:52:42;;;;;;;574.45;518.05;;;20.60;99.90;;;;;;8294744;28;20033;-67
2021/07/18 07:56:43;;;;;;;562.70;505.40;;;20.40;99.90;;;;;;8294159;28;20030;-68
2021/07/18 08:00:44;;;;;;;560.90;502.60;;;19.90;99.90;;;;;;8290487;28;20038;-67
2021/07/18 08:04:44;;;;;;;563.58;506.75;;;20.20;99.90;;;;;;8293846;28;20113;-66
2021/07/18 08:08:45;;;;;;;564.33;504.77;;;20.70;99.90;;;;;;8293341;28;20038;-61
2021/07/18 08:12:47;;;;;;;556.78;498.55;;;20.50;99.90;;;;;;8293138;28;20177;-61
2021/07/18 08:16:47;;;;;;;572.50;513.88;;;20.60;99.90;;;;;;8293766;28;20116;-62
2021/07/18 08:20:48;;;;;;;583.83;526.67;;;21.10;99.90;;;;;;8293653;28;20049;-61
2021/07/18 08:24:49;;;;;;;591.60;534.28;;;21.00;99.90;;;;;;8293118;28;20056;-61
2021/07/18 08:28:49;;;;;;;614.25;559.35;;;21.50;99.90;;;;;;8292568;28;20030;-61
2021/07/18 08:32:51;;;;;;;633.33;579.63;;;22.50;99.90;;;;;;8292974;28;20531;-61
2021/07/18 08:36:52;;;;;;;663.20;604.92;;;23.10;99.90;;;;;;8285250;28;20042;-61
2021/07/18 08:40:54;;;;;;;676.38;616.35;;;23.90;99.90;;;;;;8293020;28;20080;-61
2021/07/18 08:44:57;;;;;;;684.05;622.38;;;24.00;99.90;;;;;;8283593;28;20450;-61
2021/07/18 08:48:57;;;;;;;688.17;626.58;;;24.00;99.90;;;;;;8292097;28;20018;-61
2021/07/18 08:52:58;;;;;;;693.00;630.17;;;24.00;99.90;;;;;;8270903;28;20029;-61
2021/07/18 08:57:00;;;;;;;710.63;648.40;;;24.10;99.90;;;;;;8279921;28;20045;-61
2021/07/18 09:01:01;;;;;;;710.53;649.33;;;24.20;99.90;;;;;;8259807;28;20038;-61
2021/07/18 09:05:02;;;;;;;724.85;662.15;;;24.50;99.90;;;;;;8280026;28;20049;-60
2021/07/18 09:09:07;;;;;;;733.90;674.42;;;24.90;99.90;;;;;;8291799;28;20511;-62
2021/07/18 09:13:10;;;;;;;735.97;673.80;;;25.30;99.90;;;;;;8292624;28;20072;-61
2021/07/18 09:17:19;;;;;;;742.28;683.85;;;25.70;99.90;;;;;;8291988;28;20014;-62
2021/07/18 09:21:19;;;;;;;747.03;683.78;;;25.50;99.90;;;;;;8273212;28;20030;-62
2021/07/18 09:25:20;;;;;;;754.47;693.72;;;25.30;99.90;;;;;;8282832;28;20518;-61
2021/07/18 09:29:25;;;;;;;715.38;645.63;;;25.30;99.90;;;;;;8259415;28;20034;-62
2021/07/18 09:33:28;;;;;;;686.50;617.03;;;25.10;99.90;;;;;;8249353;28;20034;-61
2021/07/18 09:37:35;;;;;;;691.22;621.72;;;23.90;99.90;;;;;;8291548;28;20080;-61
2021/07/18 09:41:37;;;;;;;702.60;632.63;;;24.20;99.90;;;;;;8291352;28;20018;-62
2021/07/18 09:45:40;;;;;;;694.60;625.15;;;24.50;99.90;;;;;;8291282;28;20026;-63
2021/07/18 09:49:40;;;;;;;722.97;652.80;;;24.80;99.90;;;;;;8276604;28;20037;-61
2021/07/18 09:53:42;;;;;;;732.28;662.20;;;25.50;99.90;;;;;;8297723;28;20025;-61
2021/07/18 09:57:43;;;;;;;763.13;693.67;;;26.10;99.90;;;;;;8286256;28;20058;-61
2021/07/18 10:01:53;;;;;;;784.85;715.17;;;26.60;99.90;;;;;;8293739;28;20219;-61
2021/07/18 10:06:17;;;;;;;791.65;720.90;;;27.40;99.90;;;;;;8280206;28;20058;-62
2021/07/18 10:10:18;;;;;;;776.13;704.55;;;27.80;99.90;;;;;;8284541;28;20026;-61
2021/07/18 10:14:18;;;;;;;779.40;707.80;;;27.20;99.90;;;;;;8290683;28;20017;-61
2021/07/18 10:18:19;;;;;;;789.55;717.50;;;27.20;99.90;;;;;;8284206;28;20027;-61
2021/07/18 10:22:20;;;;;;;801.30;728.75;;;27.60;99.90;;;;;;8267223;28;20164;-62
2021/07/18 10:26:25;;;;;;;795.55;723.15;;;27.50;99.90;;;;;;8292026;28;20030;-65
2021/07/18 10:30:28;;;;;;;810.88;738.22;;;27.70;99.90;;;;;;8278662;28;20018;-65
2021/07/18 10:34:31;;;;;;;814.03;741.42;;;27.60;99.90;;;;;;8296603;28;20125;-65
2021/07/18 10:38:34;;;;;;;811.55;739.10;;;28.10;99.90;;;;;;8296339;28;20030;-64
2021/07/18 10:42:35;;;;;;;822.00;749.72;;;28.40;99.90;;;;;;8295492;28;20108;-66
2021/07/18 10:46:41;;;;;;;828.25;758.38;;;28.30;99.90;;;;;;8281542;28;20076;-66
2021/07/18 10:50:48;;;;;;;845.60;775.60;;;28.50;99.90;;;;;;8275878;28;20017;-65
2021/07/18 10:54:48;;;;;;;863.45;795.88;;;29.00;99.90;;;;;;8295609;28;20028;-66
2021/07/18 10:58:52;;;;;;;849.75;778.30;;;29.20;99.90;;;;;;8289091;28;20038;-66
2021/07/18 11:03:05;;;;;;;852.53;785.72;;;29.00;99.90;;;;;;8295765;28;20053;-65
2021/07/18 11:07:20;;;;;;;851.28;786.03;;;28.70;99.90;;;;;;8295412;28;20105;-65
2021/07/18 11:11:40;;;;;;;861.88;797.17;;;28.90;99.90;;;;;;8293676;28;20049;-65
2021/07/18 11:15:42;;;;;;;852.33;790.45;;;29.40;99.90;;;;;;8260881;28;20088;-65
2021/07/18 11:19:56;;;;;;;828.90;770.05;;;29.10;99.90;;;;;;8284001;28;20611;-65
2021/07/18 11:23:56;;;;;;;826.13;766.95;;;28.50;99.90;;;;;;8295502;28;20551;-65
2021/07/18 11:27:57;;;;;;;803.42;746.78;;;27.70;99.90;;;;;;8251509;28;20058;-65
2021/07/18 11:31:57;;;;;;;776.13;722.10;;;28.40;99.90;;;;;;8263171;28;20018;-65
2021/07/18 11:35:58;;;;;;;764.92;712.08;;;28.90;99.90;;;;;;8291109;28;20365;-66
2021/07/18 11:40:00;;;;;;;826.55;767.58;;;28.90;99.90;;;;;;8294841;28;20041;-65
2021/07/18 11:44:02;;;;;;;816.90;759.13;;;28.40;99.90;;;;;;8293953;28;20029;-65
2021/07/18 11:48:03;;;;;;;783.05;728.05;;;28.20;99.90;;;;;;8290643;28;20027;-64
2021/07/18 11:52:06;;;;;;;738.30;687.55;;;28.30;99.90;;;;;;8281896;28;20026;-66
2021/07/18 11:56:27;;;;;;;711.28;662.92;;;28.20;99.90;;;;;;8272308;28;20060;-66
2021/07/18 12:00:27;;;;;;;660.72;615.40;;;27.70;99.90;;;;;;8290942;28;20033;-64
2021/07/18 12:04:28;;;;;;;622.97;580.90;;;27.00;99.90;;;;;;8293194;28;20032;-66
2021/07/18 12:08:34;;;;;;;579.72;540.63;;;27.00;99.90;;;;;;8289013;28;20022;-64
2021/07/18 12:12:35;;;;;;;531.53;496.13;;;27.90;99.90;;;;;;8288565;28;20628;-65
2021/07/18 12:16:38;;;;;;;625.47;583.17;;;29.80;99.90;;;;;;8291640;28;20042;-64
2021/07/18 12:20:38;;;;;;;634.40;591.28;;;30.50;99.90;;;;;;8291579;28;20077;-64
2021/07/18 12:24:42;;;;;;;562.45;524.75;;;29.70;99.90;;;;;;8292021;28;20075;-63
2021/07/18 12:28:42;;;;;;;556.75;519.28;;;29.80;99.90;;;;;;8288596;28;20042;-64
2021/07/18 12:32:43;;;;;;;500.88;467.48;;;30.30;99.90;;;;;;8290422;28;20034;-64
2021/07/18 12:37:00;;;;;;;462.08;431.60;;;30.80;99.90;;;;;;8288328;28;20048;-64
2021/07/18 12:41:04;;;;;;;481.23;449.40;;;30.30;99.90;;;;;;8285855;28;20049;-64
2021/07/18 12:45:20;;;;;;;440.50;411.40;;;30.70;99.90;;;;;;8269712;28;20629;-65
2021/07/18 12:49:24;;;;;;;416.45;389.02;;;32.10;99.90;;;;;;8286796;28;20018;-63
2021/07/18 12:53:24;;;;;;;366.77;343.10;;;32.20;97.90;;;;;;8269507;28;20022;-63
2021/07/18 12:57:31;;;;;;;408.80;382.20;;;31.40;99.90;;;;;;8289655;28;20033;-63
2021/07/18 13:01:32;;;;;;;403.70;377.27;;;31.10;99.90;;;;;;8291136;28;20100;-64
2021/07/18 13:05:33;;;;;;;577.25;537.53;;;35.60;93.10;;;;;;8274108;28;20109;-64
2021/07/18 13:09:34;;;;;;;608.28;565.63;;;39.00;76.70;;;;;;8280062;28;20026;-63
2021/07/18 13:13:35;;;;;;;522.88;486.67;;;38.30;61.80;;;;;;8262111;28;20030;-63
2021/07/18 13:17:49;;;;;;;547.55;508.95;;;39.00;55.90;;;;;;8286136;28;20496;-63
2021/07/18 13:22:00;;;;;;;486.35;452.05;;;39.90;56.80;;;;;;8286978;28;20029;-63
2021/07/18 13:26:01;;;;;;;520.95;483.95;;;41.20;50.70;;;;;;8279142;28;20038;-63
2021/07/18 13:30:07;;;;;;;486.38;451.88;;;39.40;52.20;;;;;;8296381;28;20156;-62
2021/07/18 13:34:08;;;;;;;394.60;366.88;;;40.70;50.40;;;;;;8297453;28;20021;-65
2021/07/18 13:38:18;;;;;;;402.10;373.13;;;42.70;48.00;;;;;;8279559;28;20026;-64
2021/07/18 13:42:19;;;;;;;398.13;369.40;;;44.50;43.40;;;;;;8295649;28;20030;-64
2021/07/18 13:46:19;;;;;;;418.90;388.25;;;45.10;40.40;;;;;;8296387;28;20026;-65
2021/07/18 13:50:20;;;;;;;388.77;360.45;;;46.00;39.40;;;;;;8273251;28;20018;-64
2021/07/18 13:54:21;;;;;;;361.08;335.08;;;43.20;41.00;;;;;;8280503;28;20064;-64
2021/07/18 13:58:25;;;;;;;337.83;313.48;;;43.30;40.80;;;;;;8295591;28;20542;-64
2021/07/18 14:02:25;;;;;;;300.08;278.38;;;42.40;41.90;;;;;;8295497;28;20033;-64
2021/07/18 14:06:26;;;;;;;303.88;281.88;;;43.90;40.70;;;;;;8284532;28;20562;-64
2021/07/18 14:10:26;;;;;;;294.48;273.33;;;45.00;37.30;;;;;;8276967;28;20029;-64
2021/07/18 14:14:27;;;;;;;259.90;241.15;;;42.80;41.10;;;;;;8277798;28;20037;-64
2021/07/18 14:18:27;;;;;;;252.57;234.27;;;43.90;38.50;;;;;;8295510;28;20174;-63
2021/07/18 14:22:29;;;;;;;273.98;253.77;;;45.20;37.40;;;;;;8278741;28;20037;-64
2021/07/18 14:26:29;;;;;;;236.68;219.18;;;46.50;35.70;;;;;;8295444;28;20149;-64
2021/07/18 14:30:31;;;;;;;287.63;266.90;;;43.40;37.70;;;;;;8295877;28;20030;-63
2021/07/18 14:34:32;;;;;;;269.75;250.50;;;39.00;44.00;;;;;;8272544;28;20627;-64
2021/07/18 14:38:33;;;;;;;256.15;237.95;;;37.90;45.10;;;;;;8293782;28;20057;-64
2021/07/18 14:42:33;;;;;;;267.70;248.73;;;39.70;42.60;;;;;;8296526;28;20033;-64
2021/07/18 14:46:34;;;;;;;287.75;267.23;;;39.90;42.90;;;;;;8296481;28;20026;-64
2021/07/18 14:50:35;;;;;;;306.80;285.13;;;39.20;43.50;;;;;;8294585;28;20380;-63
2021/07/18 14:54:35;;;;;;;299.00;277.75;;;38.50;42.20;;;;;;8261111;28;20057;-64
2021/07/18 14:58:36;;;;;;;551.83;511.42;;;38.10;44.10;;;;;;8276324;28;20488;-64
2021/07/18 15:02:38;;;;;;;442.63;410.10;;;39.60;44.30;;;;;;8271833;28;20029;-65
2021/07/18 15:06:39;;;;;;;421.23;390.58;;;39.60;43.00;;;;;;8294347;28;20108;-64
2021/07/18 15:10:39;;;;;;;420.90;390.55;;;38.00;44.90;;;;;;8295093;28;20033;-63
2021/07/18 15:14:40;;;;;;;478.88;444.10;;;37.20;44.90;;;;;;8294927;28;20026;-64
2021/07/18 15:18:41;;;;;;;472.52;437.95;;;39.10;44.50;;;;;;8276053;28;20104;-64
2021/07/18 15:22:42;;;;;;;427.58;396.27;;;40.50;42.40;;;;;;8275837;28;20034;-64
2021/07/18 15:26:43;;;;;;;447.65;415.27;;;40.80;38.90;;;;;;8293782;28;20459;-63
2021/07/18 15:30:46;;;;;;;399.10;369.83;;;39.40;40.30;;;;;;8292350;28;20029;-63
2021/07/18 15:34:46;;;;;;;375.90;348.48;;;39.60;41.10;;;;;;8292865;28;20022;-64
2021/07/18 15:38:47;;;;;;;417.70;387.58;;;39.80;41.00;;;;;;8294028;28;20522;-64
2021/07/18 15:42:47;;;;;;;393.67;365.92;;;36.90;42.20;;;;;;8294865;28;20037;-63
2021/07/18 15:46:48;;;;;;;371.58;345.30;;;37.50;40.70;;;;;;8293915;28;20088;-63
2021/07/18 15:50:48;;;;;;;380.70;353.48;;;38.40;42.50;;;;;;8294072;28;20053;-63
2021/07/18 15:54:49;;;;;;;323.70;299.42;;;40.50;40.20;;;;;;8294279;28;20061;-63
2021/07/18 15:58:50;;;;;;;308.88;286.15;;;40.80;39.30;;;;;;8294022;28;20069;-64
2021/07/18 16:02:50;;;;;;;297.40;275.35;;;41.40;38.60;;;;;;8293278;28;20409;-63
2021/07/18 16:06:52;;;;;;;271.85;251.50;;;43.50;36.00;;;;;;8292855;28;20043;-64
2021/07/18 16:10:53;;;;;;;268.80;248.52;;;42.90;36.40;;;;;;8289885;28;20049;-64
2021/07/18 16:14:54;;;;;;;258.05;238.43;;;44.00;35.90;;;;;;8292741;28;20038;-64
2021/07/18 16:18:54;;;;;;;239.35;221.43;;;45.40;34.80;;;;;;8292236;28;20033;-64
2021/07/18 16:22:55;;;;;;;230.32;212.48;;;45.70;33.00;;;;;;8292293;28;20034;-64
2021/07/18 16:26:56;;;;;;;246.70;228.30;;;45.50;34.00;;;;;;8292514;28;20097;-64
2021/07/18 16:30:56;;;;;;;231.15;213.57;;;44.40;34.00;;;;;;8256983;28;20034;-64
2021/07/18 16:34:57;;;;;;;219.38;203.25;;;43.40;35.90;;;;;;8284751;28;20057;-63
2021/07/18 16:38:57;;;;;;;225.30;208.95;;;40.20;39.30;;;;;;8290819;28;20477;-63
2021/07/18 16:42:58;;;;;;;305.10;283.35;;;37.30;43.70;;;;;;8292290;28;20062;-63
2021/07/18 16:46:59;;;;;;;314.55;292.48;;;34.70;49.70;;;;;;8292086;28;20050;-63
2021/07/18 16:50:59;;;;;;;328.08;305.60;;;34.50;48.90;;;;;;8287566;28;20034;-64
2021/07/18 16:55:00;;;;;;;388.00;360.67;;;36.00;47.20;;;;;;8288586;28;20042;-64
2021/07/18 16:59:02;;;;;;;379.73;353.02;;;38.10;44.30;;;;;;8289766;28;20033;-64
2021/07/18 17:03:03;;;;;;;352.92;327.63;;;39.60;42.10;;;;;;8284925;28;20041;-64
2021/07/18 17:07:05;;;;;;;306.15;284.02;;;40.90;40.40;;;;;;8288477;28;20072;-64
2021/07/18 17:11:07;;;;;;;268.40;248.60;;;42.00;38.00;;;;;;8273401;28;20018;-64
2021/07/18 17:15:10;;;;;;;261.35;241.98;;;42.50;37.40;;;;;;8267938;28;20105;-64
2021/07/18 17:19:11;;;;;;;249.88;231.43;;;41.90;36.90;;;;;;8283464;28;20160;-64
2021/07/18 17:23:11;;;;;;;244.57;226.18;;;40.10;39.20;;;;;;8289064;28;20492;-64
2021/07/18 17:27:13;;;;;;;305.25;282.70;;;38.20;42.00;;;;;;8289675;28;20034;-63
2021/07/18 17:31:13;;;;;;;309.00;287.25;;;35.40;45.60;;;;;;8283578;28;20029;-63
2021/07/18 17:35:14;;;;;;;353.60;329.20;;;33.40;50.80;;;;;;8289545;28;20465;-65
2021/07/18 17:39:15;;;;;;;366.23;341.48;;;32.30;52.40;;;;;;8274249;28;20030;-64
2021/07/18 17:43:16;;;;;;;440.65;410.85;;;31.40;54.50;;;;;;8292179;28;20481;-63
2021/07/18 17:47:17;;;;;;;448.13;417.88;;;30.40;57.40;;;;;;8274151;28;20397;-63
2021/07/18 17:51:18;;;;;;;491.45;458.27;;;29.60;60.00;;;;;;8276366;28;20026;-63
2021/07/18 17:55:18;;;;;;;430.00;401.83;;;28.80;62.60;;;;;;8284898;28;20105;-63
2021/07/18 17:59:21;;;;;;;258.33;242.98;;;28.10;63.20;;;;;;8264058;28;20108;-63
2021/07/18 18:03:22;;;;;;;272.02;255.57;;;27.40;68.80;;;;;;8265761;28;20370;-64
2021/07/18 18:07:22;;;;;;;294.70;277.10;;;26.90;71.70;;;;;;8291225;28;20038;-63
2021/07/18 18:11:23;;;;;;;340.92;319.38;;;26.80;72.30;;;;;;8295038;28;20104;-62
2021/07/18 18:15:24;;;;;;;315.88;297.23;;;26.10;74.50;;;;;;8278396;28;20040;-63
2021/07/18 18:19:26;;;;;;;405.08;379.10;;;25.50;76.60;;;;;;8296418;28;20034;-63
2021/07/18 18:23:27;;;;;;;300.33;282.50;;;24.70;83.80;;;;;;8296187;28;20026;-63
2021/07/18 18:27:28;;;;;;;458.42;428.20;;;24.40;85.20;;;;;;8289636;28;20488;-64
2021/07/18 18:31:29;;;;;;;531.45;495.95;;;24.20;87.10;;;;;;8286838;28;20030;-64
2021/07/18 18:35:30;;;;;;;527.85;492.13;;;23.90;89.70;;;;;;8285751;28;20029;-63
2021/07/18 18:39:31;;;;;;;573.38;533.53;;;23.70;92.80;;;;;;8290497;28;20026;-63
2021/07/18 18:43:31;;;;;;;586.25;545.30;;;23.40;96.70;;;;;;8293899;28;20502;-63
2021/07/18 18:47:32;;;;;;;619.95;576.97;;;23.20;99.90;;;;;;8284945;28;20026;-63
2021/07/18 18:51:32;;;;;;;614.63;571.40;;;23.00;99.00;;;;;;8261852;28;20030;-64
2021/07/18 18:55:33;;;;;;;650.90;604.72;;;22.70;99.90;;;;;;8251684;28;20057;-64
2021/07/18 18:59:33;;;;;;;664.63;595.35;;;22.30;99.90;;;;;;8262772;28;20096;-64
2021/07/18 19:03:34;;;;;;;651.83;583.10;;;22.00;99.90;;;;;;8294544;28;20021;-64
2021/07/18 19:07:35;;;;;;;653.00;583.78;;;21.80;99.90;;;;;;8293121;28;20049;-64
2021/07/18 19:11:37;;;;;;;652.70;583.33;;;21.50;99.90;;;;;;8243843;28;20088;-64
2021/07/18 19:15:38;;;;;;;636.72;567.90;;;21.20;99.90;;;;;;8275109;28;20037;-64
2021/07/18 19:19:38;;;;;;;630.45;561.50;;;21.20;99.90;;;;;;8276034;28;20061;-64
2021/07/18 19:23:39;;;;;;;640.35;570.97;;;21.00;99.90;;;;;;8275479;28;20121;-64
2021/07/18 19:27:40;;;;;;;620.97;552.53;;;20.60;99.90;;;;;;8274640;28;20503;-63
2021/07/18 19:31:42;;;;;;;612.65;528.55;;;20.50;99.90;;;;;;8280136;28;20021;-63
2021/07/18 19:35:44;;;;;;;611.20;520.38;;;20.40;99.90;;;;;;8304425;28;20052;-63
2021/07/18 19:39:44;;;;;;;607.20;506.85;;;20.30;99.90;;;;;;8301110;28;20064;-63
2021/07/18 19:43:45;;;;;;;608.75;516.42;;;20.00;99.90;;;;;;8293757;28;20021;-63
2021/07/18 19:47:46;;;;;;;606.30;497.42;;;20.00;99.90;;;;;;8292685;28;20026;-63
2021/07/18 19:51:46;;;;;;;602.50;488.25;;;19.80;99.90;;;;;;8294725;28;20147;-63
2021/07/18 19:55:47;;;;;;;603.78;484.77;;;19.40;99.90;;;;;;8279726;28;20035;-64